Time;durP1;ratioP1;P1;durP2;ratioP2;P2;SDS_P1;SDS_P2;PMS_P1;PMS_P2;Temp;Humidity;BMP_temperature;BMP_pressure;BME280_temperature;BME280_humidity;BME280_pressure;Samples;Min_cycle;Max_cycle;Signal;HPM_P1;HPM_P2
2024/03/24 00:00:05;;;;;;;0.62;0.62;;;4.60;99.90;;;;;;4455239;32;20100;-64
2024/03/24 00:02:31;;;;;;;0.57;0.57;;;4.70;99.90;;;;;;4455825;32;20432;-65
2024/03/24 00:04:56;;;;;;;0.40;0.40;;;4.70;99.90;;;;;;4454827;32;20065;-65
2024/03/24 00:07:22;;;;;;;0.40;0.40;;;4.70;99.90;;;;;;4453753;32;20713;-65
2024/03/24 00:09:47;;;;;;;0.60;0.60;;;4.70;99.90;;;;;;4453819;32;20093;-65
2024/03/24 00:12:13;;;;;;;0.40;0.40;;;4.60;99.90;;;;;;4456402;32;20431;-65
2024/03/24 00:14:38;;;;;;;1.08;0.93;;;4.60;99.90;;;;;;4453598;32;20120;-65
2024/03/24 00:17:04;;;;;;;0.30;0.30;;;4.60;99.90;;;;;;4454817;32;20088;-65
2024/03/24 00:19:29;;;;;;;0.30;0.30;;;4.50;99.90;;;;;;4456845;32;20081;-65
2024/03/24 00:21:55;;;;;;;0.30;0.30;;;4.50;99.90;;;;;;4456528;32;20064;-65
2024/03/24 00:24:20;;;;;;;0.25;0.25;;;4.50;99.90;;;;;;4456710;32;20474;-65
2024/03/24 00:26:46;;;;;;;0.55;0.55;;;4.40;99.90;;;;;;4455091;32;20072;-65
2024/03/24 00:29:11;;;;;;;0.30;0.30;;;4.40;99.90;;;;;;4455839;32;20068;-66
2024/03/24 00:31:37;;;;;;;0.30;0.30;;;4.50;99.90;;;;;;4454901;32;20064;-65
2024/03/24 00:34:02;;;;;;;0.30;0.30;;;4.50;99.90;;;;;;4457854;32;20134;-66
2024/03/24 00:36:27;;;;;;;0.40;0.40;;;4.40;99.90;;;;;;4454831;32;20124;-66
2024/03/24 00:38:53;;;;;;;0.28;0.28;;;4.50;99.90;;;;;;4456626;32;20454;-66
2024/03/24 00:41:18;;;;;;;1.77;0.82;;;4.40;99.90;;;;;;4452811;32;20097;-65
2024/03/24 00:43:44;;;;;;;0.30;0.30;;;4.50;99.90;;;;;;4454572;32;20391;-66
2024/03/24 00:46:09;;;;;;;0.30;0.30;;;4.40;99.90;;;;;;4453022;32;20119;-66
2024/03/24 00:48:35;;;;;;;0.30;0.30;;;4.40;99.90;;;;;;4456807;32;20092;-65
2024/03/24 00:51:00;;;;;;;0.30;0.30;;;4.40;99.90;;;;;;4455698;32;20120;-65
2024/03/24 00:53:26;;;;;;;0.40;0.40;;;4.30;99.90;;;;;;4456586;32;20081;-66
2024/03/24 00:55:51;;;;;;;0.37;0.37;;;4.40;99.90;;;;;;4456059;32;20069;-68
2024/03/24 00:58:17;;;;;;;0.68;0.68;;;4.40;99.90;;;;;;4454195;32;20080;-66
2024/03/24 01:00:43;;;;;;;0.30;0.30;;;4.30;99.90;;;;;;4456322;32;20104;-63
2024/03/24 01:03:09;;;;;;;0.62;0.60;;;4.30;99.90;;;;;;4458221;32;20448;-63
2024/03/24 01:05:37;;;;;;;0.57;0.57;;;4.30;99.90;;;;;;4457472;32;20115;-63
2024/03/24 01:08:02;;;;;;;0.88;0.88;;;4.30;99.90;;;;;;4456821;32;20068;-63
2024/03/24 01:10:28;;;;;;;0.40;0.40;;;4.20;99.90;;;;;;4447196;32;20077;-64
2024/03/24 01:12:53;;;;;;;0.30;0.30;;;4.20;99.90;;;;;;4448474;32;20080;-66
2024/03/24 01:15:19;;;;;;;0.32;0.32;;;4.20;99.90;;;;;;4454160;32;20525;-66
2024/03/24 01:17:45;;;;;;;0.37;0.37;;;4.20;99.90;;;;;;4454277;32;20081;-64
2024/03/24 01:20:11;;;;;;;0.32;0.32;;;4.10;99.90;;;;;;4449520;32;20124;-65
2024/03/24 01:22:37;;;;;;;0.30;0.30;;;4.10;99.90;;;;;;4454203;32;20465;-61
2024/03/24 01:25:04;;;;;;;5.20;1.12;;;4.00;99.90;;;;;;4454640;32;20515;-61
2024/03/24 01:27:30;;;;;;;0.30;0.30;;;4.00;99.90;;;;;;4455378;32;21480;-61
2024/03/24 01:29:55;;;;;;;0.30;0.30;;;4.10;99.90;;;;;;4454905;32;20060;-61
2024/03/24 01:32:21;;;;;;;0.40;0.40;;;4.10;99.90;;;;;;4455429;32;20080;-61
2024/03/24 01:34:47;;;;;;;0.32;0.32;;;4.00;99.90;;;;;;4455055;32;21148;-61
2024/03/24 01:37:12;;;;;;;0.30;0.30;;;4.00;99.90;;;;;;4456055;32;20524;-61
2024/03/24 01:39:38;;;;;;;0.40;0.40;;;4.00;99.90;;;;;;4456235;32;20120;-62
2024/03/24 01:42:03;;;;;;;0.30;0.30;;;4.00;99.90;;;;;;4455636;32;20084;-61
2024/03/24 01:44:30;;;;;;;0.40;0.40;;;3.90;99.90;;;;;;4455062;32;20064;-61
2024/03/24 01:46:56;;;;;;;0.30;0.30;;;3.90;99.90;;;;;;4454357;32;20085;-63
2024/03/24 01:49:22;;;;;;;0.45;0.45;;;3.80;99.90;;;;;;4452813;32;20134;-62
2024/03/24 01:51:48;;;;;;;0.40;0.40;;;3.80;99.90;;;;;;4454785;32;20061;-63
2024/03/24 01:54:15;;;;;;;2.37;1.37;;;3.80;99.90;;;;;;4456299;32;20105;-63
2024/03/24 01:56:41;;;;;;;0.30;0.30;;;3.90;99.90;;;;;;4454831;32;20484;-60
2024/03/24 01:59:06;;;;;;;0.32;0.32;;;3.90;99.90;;;;;;4451757;32;20069;-61
2024/03/24 02:01:32;;;;;;;0.35;0.35;;;3.90;99.90;;;;;;4438434;32;20080;-60
2024/03/24 02:03:58;;;;;;;0.40;0.40;;;3.90;99.90;;;;;;4454108;32;20077;-61
2024/03/24 02:06:23;;;;;;;0.43;0.43;;;3.90;99.90;;;;;;4445982;32;20073;-63
2024/03/24 02:08:49;;;;;;;0.73;0.55;;;3.90;99.90;;;;;;4454141;32;20065;-63
2024/03/24 02:11:14;;;;;;;0.40;0.40;;;4.00;99.90;;;;;;4455786;32;20087;-63
2024/03/24 02:13:40;;;;;;;0.30;0.30;;;3.90;99.90;;;;;;4454558;32;20072;-62
2024/03/24 02:16:06;;;;;;;0.50;0.50;;;3.90;99.90;;;;;;4454473;32;20415;-61
2024/03/24 02:18:31;;;;;;;0.40;0.40;;;3.90;99.90;;;;;;4446786;32;20390;-63
2024/03/24 02:20:57;;;;;;;0.40;0.40;;;3.80;99.90;;;;;;4454968;32;20532;-63
2024/03/24 02:23:23;;;;;;;0.45;0.45;;;3.80;99.90;;;;;;4456752;32;20068;-64
2024/03/24 02:25:49;;;;;;;0.30;0.30;;;3.70;99.90;;;;;;4456249;32;20085;-63
2024/03/24 02:28:16;;;;;;;0.30;0.30;;;3.90;99.90;;;;;;4455612;32;20472;-63
2024/03/24 02:30:42;;;;;;;0.30;0.30;;;3.90;99.90;;;;;;4455773;32;20092;-63
2024/03/24 02:33:07;;;;;;;0.50;0.50;;;3.80;99.90;;;;;;4455248;32;20375;-65
2024/03/24 02:35:33;;;;;;;0.30;0.30;;;3.70;99.90;;;;;;4452136;32;20072;-65
2024/03/24 02:37:58;;;;;;;0.50;0.50;;;3.80;99.90;;;;;;4453345;32;20410;-65
2024/03/24 02:40:24;;;;;;;0.43;0.43;;;3.70;99.90;;;;;;4453452;32;20551;-64
2024/03/24 02:42:49;;;;;;;0.30;0.30;;;3.70;99.90;;;;;;4455579;32;20100;-62
2024/03/24 02:45:15;;;;;;;0.60;0.60;;;3.60;99.90;;;;;;4454837;32;20115;-62
2024/03/24 02:47:40;;;;;;;0.37;0.37;;;3.60;99.90;;;;;;4452167;32;20061;-61
2024/03/24 02:50:06;;;;;;;0.30;0.30;;;3.70;99.90;;;;;;4452431;32;20076;-62
2024/03/24 02:52:32;;;;;;;0.30;0.30;;;3.70;99.90;;;;;;4451842;32;20426;-64
2024/03/24 02:54:58;;;;;;;0.60;0.60;;;3.70;99.90;;;;;;4453188;32;20076;-64
2024/03/24 02:57:23;;;;;;;0.40;0.40;;;3.70;99.90;;;;;;4452990;32;20068;-65
2024/03/24 02:59:49;;;;;;;0.30;0.30;;;3.70;99.90;;;;;;4453456;32;20541;-65
2024/03/24 03:02:14;;;;;;;0.30;0.30;;;3.70;99.90;;;;;;4454388;32;20060;-66
2024/03/24 03:04:39;;;;;;;0.30;0.30;;;3.70;99.90;;;;;;4453578;32;20072;-65
2024/03/24 03:07:05;;;;;;;0.35;0.35;;;3.60;99.90;;;;;;4453843;32;20061;-65
2024/03/24 03:09:31;;;;;;;1.33;1.20;;;3.70;99.90;;;;;;4454724;32;20084;-65
2024/03/24 03:11:57;;;;;;;0.30;0.30;;;3.70;99.90;;;;;;4455911;32;20100;-65
2024/03/24 03:14:23;;;;;;;0.40;0.40;;;3.60;99.90;;;;;;4453731;32;20076;-65
2024/03/24 03:16:49;;;;;;;0.40;0.40;;;3.50;99.90;;;;;;4454175;32;20123;-65
2024/03/24 03:19:14;;;;;;;0.30;0.30;;;3.50;99.90;;;;;;4450707;32;20092;-65
2024/03/24 03:21:39;;;;;;;1.37;0.75;;;3.50;99.90;;;;;;4454360;32;20096;-66
2024/03/24 03:24:05;;;;;;;0.40;0.40;;;3.50;99.90;;;;;;4454368;32;20073;-65
2024/03/24 03:26:31;;;;;;;6.18;1.27;;;3.60;99.90;;;;;;4454578;32;20061;-65
2024/03/24 03:28:56;;;;;;;0.40;0.40;;;3.60;99.90;;;;;;4445123;32;20080;-65
2024/03/24 03:31:22;;;;;;;0.40;0.40;;;3.60;99.90;;;;;;4455148;32;20064;-65
2024/03/24 03:33:47;;;;;;;0.30;0.30;;;3.70;99.90;;;;;;4453402;32;20226;-65
2024/03/24 03:36:13;;;;;;;0.30;0.30;;;3.70;99.90;;;;;;4452781;32;20061;-65
2024/03/24 03:38:38;;;;;;;0.40;0.40;;;3.80;99.90;;;;;;4455639;32;20144;-65
2024/03/24 03:41:05;;;;;;;0.40;0.40;;;3.80;99.90;;;;;;4447329;32;20053;-65
2024/03/24 03:43:32;;;;;;;0.35;0.35;;;3.70;99.90;;;;;;4457097;32;20081;-65
2024/03/24 03:45:58;;;;;;;0.40;0.40;;;3.60;99.90;;;;;;4455502;32;20101;-64
2024/03/24 03:48:23;;;;;;;0.30;0.30;;;3.60;99.90;;;;;;4454949;32;20516;-65
2024/03/24 03:50:50;;;;;;;0.40;0.40;;;3.60;99.90;;;;;;4450858;32;20125;-62
2024/03/24 03:53:21;;;;;;;0.30;0.30;;;3.70;99.90;;;;;;4450453;32;20139;-62
2024/03/24 03:55:50;;;;;;;0.40;0.40;;;3.60;99.90;;;;;;4448867;32;20065;-61
2024/03/24 03:58:17;;;;;;;0.47;0.47;;;3.60;99.90;;;;;;4446104;32;20530;-65
2024/03/24 04:00:43;;;;;;;0.47;0.47;;;3.60;99.90;;;;;;4455794;32;20064;-62
2024/03/24 04:03:11;;;;;;;0.37;0.37;;;3.50;99.90;;;;;;4456411;32;20069;-62
2024/03/24 04:05:37;;;;;;;0.37;0.37;;;3.50;99.90;;;;;;4447403;32;20389;-63
2024/03/24 04:08:03;;;;;;;0.30;0.30;;;3.50;99.90;;;;;;4455282;32;20076;-64
2024/03/24 04:10:29;;;;;;;0.37;0.37;;;3.50;99.90;;;;;;4455076;32;20504;-65
2024/03/24 04:12:55;;;;;;;0.70;0.50;;;3.50;99.90;;;;;;4457241;32;20081;-65
2024/03/24 04:15:20;;;;;;;0.40;0.40;;;3.50;99.90;;;;;;4455832;32;20081;-65
2024/03/24 04:17:46;;;;;;;0.30;0.30;;;3.40;99.90;;;;;;4456990;32;20374;-64
2024/03/24 04:20:11;;;;;;;0.70;0.70;;;3.40;99.90;;;;;;4454751;32;20068;-64
2024/03/24 04:22:38;;;;;;;0.93;0.93;;;3.40;99.90;;;;;;4455966;32;21165;-66
2024/03/24 04:25:05;;;;;;;0.77;0.77;;;3.40;99.90;;;;;;4456063;32;20068;-66
2024/03/24 04:27:30;;;;;;;0.40;0.40;;;3.40;99.90;;;;;;4456423;32;20081;-64
2024/03/24 04:29:56;;;;;;;0.45;0.45;;;3.60;99.90;;;;;;4453382;32;20064;-65
2024/03/24 04:32:21;;;;;;;0.30;0.30;;;3.50;99.90;;;;;;4455592;32;20481;-61
2024/03/24 04:34:46;;;;;;;0.40;0.40;;;3.50;99.90;;;;;;4455296;32;20064;-63
2024/03/24 04:37:12;;;;;;;0.62;0.62;;;3.50;99.90;;;;;;4457949;32;20433;-62
2024/03/24 04:39:37;;;;;;;0.50;0.50;;;3.50;99.90;;;;;;4454581;32;20052;-62
2024/03/24 04:42:03;;;;;;;0.32;0.32;;;3.50;99.90;;;;;;4455667;32;20060;-61
2024/03/24 04:44:29;;;;;;;0.62;0.62;;;3.50;99.90;;;;;;4455731;32;20053;-62
2024/03/24 04:46:54;;;;;;;0.30;0.30;;;3.50;99.90;;;;;;4458126;32;20578;-60
2024/03/24 04:49:20;;;;;;;0.30;0.30;;;3.50;99.90;;;;;;4455781;32;20096;-65
2024/03/24 04:51:45;;;;;;;0.40;0.40;;;3.50;99.90;;;;;;4455657;32;20072;-66
2024/03/24 04:54:11;;;;;;;0.40;0.40;;;3.60;99.90;;;;;;4453562;32;20077;-66
2024/03/24 04:56:36;;;;;;;0.30;0.30;;;3.70;99.90;;;;;;4449270;32;20064;-67
2024/03/24 04:59:03;;;;;;;0.37;0.37;;;3.80;99.90;;;;;;4458035;32;20077;-66
2024/03/24 05:01:28;;;;;;;2.55;0.95;;;3.70;99.90;;;;;;4456283;32;20142;-67
2024/03/24 05:03:54;;;;;;;0.30;0.30;;;3.70;99.90;;;;;;4456749;32;20423;-66
2024/03/24 05:06:20;;;;;;;0.35;0.35;;;3.60;99.90;;;;;;4456156;32;20157;-66
2024/03/24 05:08:46;;;;;;;0.40;0.40;;;3.60;99.90;;;;;;4455500;32;20425;-66
2024/03/24 05:11:11;;;;;;;0.30;0.30;;;3.60;99.90;;;;;;4450834;32;20536;-63
2024/03/24 05:13:38;;;;;;;0.50;0.50;;;3.60;99.90;;;;;;4454269;32;20072;-62
2024/03/24 05:16:07;;;;;;;0.30;0.30;;;3.60;99.90;;;;;;4455955;32;20133;-65
2024/03/24 05:18:36;;;;;;;0.40;0.40;;;3.60;99.90;;;;;;4455601;32;20556;-64
2024/03/24 05:21:04;;;;;;;0.30;0.30;;;3.70;99.90;;;;;;4457084;32;20080;-66
2024/03/24 05:23:29;;;;;;;0.40;0.40;;;3.70;99.90;;;;;;4453902;32;20552;-66
2024/03/24 05:25:55;;;;;;;0.50;0.50;;;3.70;99.90;;;;;;4447874;32;20056;-66
2024/03/24 05:28:21;;;;;;;0.40;0.40;;;3.70;99.90;;;;;;4452699;32;20298;-66
2024/03/24 05:30:47;;;;;;;0.40;0.40;;;3.50;99.90;;;;;;4455007;32;20118;-66
2024/03/24 05:33:13;;;;;;;0.40;0.40;;;3.60;99.90;;;;;;4441305;32;20559;-67
2024/03/24 05:35:38;;;;;;;0.30;0.30;;;3.60;99.90;;;;;;4453975;32;20081;-66
2024/03/24 05:38:04;;;;;;;1.65;0.68;;;3.70;99.90;;;;;;4454880;32;20072;-62
2024/03/24 05:40:30;;;;;;;0.50;0.50;;;3.70;99.90;;;;;;4446993;32;20065;-63
2024/03/24 05:42:55;;;;;;;0.40;0.40;;;3.70;99.90;;;;;;4454629;32;20080;-61
2024/03/24 05:45:21;;;;;;;1.17;0.95;;;3.80;99.90;;;;;;4455299;32;20465;-63
2024/03/24 05:47:48;;;;;;;0.30;0.30;;;3.70;99.90;;;;;;4446332;32;20176;-61
2024/03/24 05:50:14;;;;;;;0.65;0.52;;;3.90;99.90;;;;;;4453143;32;20559;-62
2024/03/24 05:52:41;;;;;;;0.30;0.30;;;4.00;99.90;;;;;;4454456;32;20068;-65
2024/03/24 05:55:07;;;;;;;0.40;0.40;;;3.90;99.90;;;;;;4444757;32;20095;-65
2024/03/24 05:57:33;;;;;;;0.43;0.43;;;3.90;99.90;;;;;;4455372;32;20073;-66
2024/03/24 05:59:59;;;;;;;0.30;0.30;;;3.90;99.90;;;;;;4455372;32;20073;-65
2024/03/24 06:02:26;;;;;;;0.98;0.47;;;3.90;99.90;;;;;;4455114;32;20064;-66
2024/03/24 06:04:53;;;;;;;45.90;1.33;;;3.90;99.90;;;;;;4454434;32;20459;-66
2024/03/24 06:07:18;;;;;;;0.45;0.45;;;3.90;99.90;;;;;;4453852;32;20110;-67
2024/03/24 06:09:44;;;;;;;0.43;0.43;;;3.80;99.90;;;;;;4448426;32;20628;-63
2024/03/24 06:12:11;;;;;;;0.30;0.30;;;3.80;99.90;;;;;;4456662;32;20069;-63
2024/03/24 06:14:37;;;;;;;0.35;0.35;;;3.90;99.90;;;;;;4447251;32;20072;-63
2024/03/24 06:17:04;;;;;;;1.48;1.10;;;3.90;99.90;;;;;;4456666;32;20072;-63
2024/03/24 06:19:30;;;;;;;1.10;0.88;;;3.90;99.90;;;;;;4447152;32;20191;-63
2024/03/24 06:21:55;;;;;;;0.40;0.40;;;4.00;99.90;;;;;;4456224;32;20127;-63
2024/03/24 06:24:21;;;;;;;1.85;1.75;;;4.10;99.90;;;;;;4455615;32;20063;-63
2024/03/24 06:26:46;;;;;;;2.92;1.25;;;4.20;99.90;;;;;;4454881;32;21253;-61
2024/03/24 06:29:12;;;;;;;0.40;0.40;;;4.30;99.90;;;;;;4456106;32;20069;-61
2024/03/24 06:31:38;;;;;;;0.40;0.40;;;4.30;99.90;;;;;;4455903;32;20064;-61
2024/03/24 06:34:04;;;;;;;0.40;0.40;;;4.40;99.90;;;;;;4455663;32;20089;-63
2024/03/24 06:36:30;;;;;;;0.40;0.40;;;4.40;99.90;;;;;;4428147;32;20064;-63
2024/03/24 06:38:55;;;;;;;0.30;0.30;;;4.50;99.90;;;;;;4447197;32;20073;-62
2024/03/24 06:41:21;;;;;;;0.40;0.40;;;4.50;99.90;;;;;;4454188;32;20577;-62
2024/03/24 06:43:46;;;;;;;0.57;0.57;;;4.60;99.90;;;;;;4455007;32;20143;-62
2024/03/24 06:46:12;;;;;;;0.40;0.40;;;4.60;99.90;;;;;;4453082;32;20073;-62
2024/03/24 06:48:37;;;;;;;0.30;0.30;;;4.70;99.90;;;;;;4455684;32;20500;-61
2024/03/24 06:51:04;;;;;;;0.30;0.30;;;4.60;99.90;;;;;;4454955;32;20544;-63
2024/03/24 06:53:30;;;;;;;0.43;0.43;;;4.60;99.90;;;;;;4454871;32;20120;-63
2024/03/24 06:55:55;;;;;;;0.30;0.30;;;4.60;99.90;;;;;;4454118;32;20108;-61
2024/03/24 06:58:21;;;;;;;1.27;0.65;;;4.70;99.90;;;;;;4454424;32;20085;-61
2024/03/24 07:00:52;;;;;;;0.62;0.62;;;4.70;99.90;;;;;;4456060;32;20536;-63
2024/03/24 07:03:17;;;;;;;0.30;0.30;;;4.70;99.90;;;;;;4446269;32;20420;-62
2024/03/24 07:05:43;;;;;;;0.30;0.30;;;4.70;99.90;;;;;;4454119;32;20068;-62
2024/03/24 07:08:08;;;;;;;0.40;0.40;;;4.70;99.90;;;;;;4454446;32;20068;-61
2024/03/24 07:10:35;;;;;;;0.30;0.30;;;4.60;99.90;;;;;;4454932;32;20123;-62
2024/03/24 07:13:00;;;;;;;0.28;0.28;;;4.60;99.90;;;;;;4455823;32;20590;-61
2024/03/24 07:15:26;;;;;;;0.45;0.45;;;4.60;99.90;;;;;;4453783;32;20080;-61
2024/03/24 07:17:52;;;;;;;0.30;0.30;;;4.70;99.90;;;;;;4456623;32;20417;-63
2024/03/24 07:20:18;;;;;;;0.50;0.50;;;4.80;99.90;;;;;;4458403;32;20560;-62
2024/03/24 07:22:43;;;;;;;0.37;0.37;;;4.90;99.90;;;;;;4459108;32;20104;-63
2024/03/24 07:25:10;;;;;;;0.73;0.73;;;4.90;99.90;;;;;;4452144;32;20068;-63
2024/03/24 07:27:35;;;;;;;1.17;0.90;;;5.00;99.90;;;;;;4449324;32;20065;-63
2024/03/24 07:30:01;;;;;;;0.37;0.37;;;5.00;99.90;;;;;;4456962;32;20518;-64
2024/03/24 07:32:27;;;;;;;0.37;0.37;;;5.10;99.90;;;;;;4458011;32;20080;-65
2024/03/24 07:34:52;;;;;;;0.32;0.32;;;5.20;99.90;;;;;;4456586;32;20405;-65
2024/03/24 07:37:19;;;;;;;0.43;0.43;;;5.30;99.90;;;;;;4455605;32;20126;-64
2024/03/24 07:39:44;;;;;;;0.43;0.35;;;5.30;99.90;;;;;;4456251;32;20632;-64
2024/03/24 07:42:10;;;;;;;1.98;1.48;;;5.40;99.90;;;;;;4457448;32;20064;-65
2024/03/24 07:44:36;;;;;;;0.40;0.40;;;5.50;99.90;;;;;;4449260;32;20128;-65
2024/03/24 07:47:04;;;;;;;0.40;0.40;;;5.60;99.90;;;;;;4456279;32;20080;-66
2024/03/24 07:49:32;;;;;;;0.90;0.82;;;5.70;99.90;;;;;;4455668;32;20512;-65
2024/03/24 07:51:58;;;;;;;0.30;0.30;;;5.80;99.90;;;;;;4453684;32;20078;-67
2024/03/24 07:54:23;;;;;;;0.98;0.62;;;5.80;99.90;;;;;;4456183;32;20060;-66
2024/03/24 07:56:49;;;;;;;0.32;0.32;;;6.00;99.90;;;;;;4455964;32;20201;-66
2024/03/24 07:59:17;;;;;;;0.37;0.37;;;6.10;99.90;;;;;;4456587;32;20430;-67
2024/03/24 08:04:07;;;;;;;0.37;0.37;;;6.20;99.90;;;;;;4456869;32;20068;-65
2024/03/24 08:06:33;;;;;;;0.43;0.43;;;6.30;99.90;;;;;;4456229;32;20767;-66
2024/03/24 08:08:58;;;;;;;0.30;0.30;;;6.40;99.90;;;;;;4455756;32;20057;-66
2024/03/24 08:11:24;;;;;;;0.20;0.20;;;6.50;99.90;;;;;;4456645;32;20068;-66
2024/03/24 08:13:49;;;;;;;0.30;0.30;;;6.60;99.90;;;;;;4457129;32;20069;-67
2024/03/24 08:16:15;;;;;;;0.50;0.50;;;6.60;99.90;;;;;;4457324;32;20085;-66
2024/03/24 08:18:40;;;;;;;0.40;0.40;;;6.60;99.90;;;;;;4455532;32;21473;-66
2024/03/24 08:21:06;;;;;;;0.65;0.65;;;6.90;99.90;;;;;;4455597;32;20111;-66
2024/03/24 08:23:31;;;;;;;0.30;0.30;;;7.10;99.90;;;;;;4456600;32;20604;-66
2024/03/24 08:25:57;;;;;;;0.30;0.30;;;7.10;99.90;;;;;;4459031;32;20068;-66
2024/03/24 08:28:22;;;;;;;0.40;0.40;;;7.10;99.90;;;;;;4457643;32;20445;-66
2024/03/24 08:30:48;;;;;;;5.07;2.15;;;7.20;99.90;;;;;;4455793;32;20092;-63
2024/03/24 08:33:13;;;;;;;0.20;0.20;;;7.30;99.90;;;;;;4456840;32;20415;-62
2024/03/24 08:35:38;;;;;;;0.30;0.30;;;7.30;99.90;;;;;;4457929;32;20061;-63
2024/03/24 08:38:04;;;;;;;0.22;0.22;;;7.40;99.90;;;;;;4455052;32;20053;-62
2024/03/24 08:40:29;;;;;;;0.77;0.77;;;7.50;99.90;;;;;;4457414;32;20060;-63
2024/03/24 08:42:55;;;;;;;0.65;0.65;;;7.60;99.90;;;;;;4455650;32;20521;-66
2024/03/24 08:45:20;;;;;;;0.47;0.47;;;7.60;99.90;;;;;;4457469;32;20081;-66
2024/03/24 08:47:46;;;;;;;0.28;0.28;;;7.50;99.90;;;;;;4453423;32;20076;-66
2024/03/24 08:50:11;;;;;;;0.30;0.30;;;7.60;99.90;;;;;;4454070;32;20502;-67
2024/03/24 08:52:37;;;;;;;0.40;0.40;;;7.50;99.90;;;;;;4454463;32;20072;-66
2024/03/24 08:55:03;;;;;;;0.40;0.40;;;7.60;99.90;;;;;;4453962;32;20146;-67
2024/03/24 08:57:28;;;;;;;0.40;0.40;;;7.80;99.90;;;;;;4453809;32;20061;-67
2024/03/24 08:59:56;;;;;;;0.32;0.32;;;7.90;99.90;;;;;;4456150;32;20093;-66
2024/03/24 09:02:21;;;;;;;0.30;0.30;;;8.00;99.90;;;;;;4456748;32;20383;-65
2024/03/24 09:04:47;;;;;;;1.30;1.20;;;8.20;99.90;;;;;;4450088;32;20065;-65
2024/03/24 09:07:13;;;;;;;0.55;0.55;;;8.10;99.90;;;;;;4455944;32;20571;-65
2024/03/24 09:09:38;;;;;;;0.28;0.28;;;8.00;99.90;;;;;;4454164;32;20072;-65
2024/03/24 09:12:04;;;;;;;1.00;0.90;;;7.90;99.90;;;;;;4455633;32;20061;-65
2024/03/24 09:14:30;;;;;;;1.75;0.95;;;7.90;99.90;;;;;;4454330;32;20065;-65
2024/03/24 09:16:55;;;;;;;0.45;0.45;;;7.80;99.90;;;;;;4456036;32;20118;-65
2024/03/24 09:19:21;;;;;;;1.12;0.50;;;7.70;99.90;;;;;;4454995;32;20056;-65
2024/03/24 09:21:47;;;;;;;0.30;0.30;;;7.70;99.90;;;;;;4455404;32;20077;-66
2024/03/24 09:24:13;;;;;;;0.40;0.40;;;7.60;99.90;;;;;;4455606;32;20445;-66
2024/03/24 09:26:38;;;;;;;0.35;0.35;;;7.40;99.90;;;;;;4455193;32;20084;-66
2024/03/24 09:29:03;;;;;;;0.30;0.30;;;7.10;99.90;;;;;;4453532;32;20080;-65
2024/03/24 09:31:29;;;;;;;0.30;0.30;;;6.90;99.90;;;;;;4456972;32;20089;-65
2024/03/24 09:33:54;;;;;;;0.30;0.30;;;6.90;99.90;;;;;;4457211;32;20089;-65
2024/03/24 09:36:20;;;;;;;0.30;0.30;;;7.00;99.90;;;;;;4449112;32;20056;-65
2024/03/24 09:38:46;;;;;;;0.28;0.28;;;7.00;99.90;;;;;;4455295;32;20545;-66
2024/03/24 09:41:11;;;;;;;0.40;0.40;;;7.10;99.90;;;;;;4454779;32;20069;-65
2024/03/24 09:43:37;;;;;;;0.20;0.20;;;7.20;99.90;;;;;;4456525;32;20450;-65
2024/03/24 09:46:03;;;;;;;1.35;0.50;;;7.30;99.90;;;;;;4456066;32;20380;-65
2024/03/24 09:48:30;;;;;;;0.28;0.28;;;7.20;99.90;;;;;;4455483;32;20064;-64
2024/03/24 09:50:56;;;;;;;0.62;0.62;;;7.20;99.90;;;;;;4452556;32;20076;-65
2024/03/24 09:53:22;;;;;;;0.30;0.30;;;7.20;99.90;;;;;;4446587;32;20093;-65
2024/03/24 09:55:48;;;;;;;1.95;1.00;;;7.00;99.90;;;;;;4453064;32;20104;-64
2024/03/24 09:58:17;;;;;;;0.85;0.85;;;7.00;99.90;;;;;;4449078;32;20516;-65
2024/03/24 10:00:43;;;;;;;0.30;0.30;;;6.80;99.90;;;;;;4455623;32;21143;-65
2024/03/24 10:03:09;;;;;;;0.52;0.52;;;6.70;99.90;;;;;;4455055;32;20073;-65
2024/03/24 10:05:36;;;;;;;0.40;0.40;;;6.60;99.90;;;;;;4455079;32;20065;-65
2024/03/24 10:08:02;;;;;;;0.40;0.40;;;6.40;99.90;;;;;;4446818;32;20072;-65
2024/03/24 10:10:28;;;;;;;0.30;0.30;;;6.10;99.90;;;;;;4456301;32;20513;-66
2024/03/24 10:12:55;;;;;;;0.37;0.37;;;5.80;99.90;;;;;;4449113;32;20089;-64
2024/03/24 10:15:22;;;;;;;0.55;0.55;;;5.70;99.90;;;;;;4450965;32;20057;-63
2024/03/24 10:18:03;;;;;;;0.30;0.30;;;5.70;99.90;;;;;;4433248;32;20072;-64
2024/03/24 10:20:29;;;;;;;0.90;0.88;;;5.60;99.90;;;;;;4454907;32;20057;-65
2024/03/24 10:22:56;;;;;;;0.50;0.50;;;5.70;99.90;;;;;;4456343;32;20065;-65
2024/03/24 10:25:24;;;;;;;0.75;0.73;;;5.70;99.90;;;;;;4455943;32;20119;-65
2024/03/24 10:27:51;;;;;;;0.30;0.30;;;5.80;99.90;;;;;;4447759;32;20080;-65
2024/03/24 10:30:17;;;;;;;1.65;0.50;;;5.80;99.90;;;;;;4454998;32;20065;-65
2024/03/24 10:32:42;;;;;;;0.30;0.30;;;5.90;99.90;;;;;;4455749;32;20600;-67
2024/03/24 10:35:09;;;;;;;0.55;0.55;;;5.90;99.90;;;;;;4454293;32;20065;-65
2024/03/24 10:37:35;;;;;;;0.30;0.30;;;5.90;99.90;;;;;;4446255;32;20553;-66
2024/03/24 10:40:02;;;;;;;0.40;0.40;;;6.00;99.90;;;;;;4449891;32;20072;-66
2024/03/24 10:42:31;;;;;;;0.52;0.52;;;6.00;99.90;;;;;;4455264;32;20085;-64
2024/03/24 10:45:00;;;;;;;0.40;0.40;;;6.10;99.90;;;;;;4455369;32;20060;-65
2024/03/24 10:47:25;;;;;;;0.40;0.40;;;6.10;99.90;;;;;;4454365;32;20084;-65
2024/03/24 10:49:54;;;;;;;0.40;0.40;;;6.10;99.90;;;;;;4454883;32;20146;-66
2024/03/24 10:52:22;;;;;;;0.30;0.30;;;6.10;99.90;;;;;;4458124;32;20496;-64
2024/03/24 10:54:48;;;;;;;0.40;0.40;;;6.10;99.90;;;;;;4442906;32;20147;-64
2024/03/24 10:57:16;;;;;;;0.47;0.47;;;6.20;99.90;;;;;;4442182;32;20517;-64
2024/03/24 10:59:44;;;;;;;0.30;0.30;;;6.30;99.90;;;;;;4442353;32;20492;-65
2024/03/24 11:02:17;;;;;;;0.30;0.30;;;6.30;99.90;;;;;;4439367;32;20094;-66
2024/03/24 11:04:43;;;;;;;0.40;0.40;;;6.20;99.90;;;;;;4426833;32;20505;-66
2024/03/24 11:07:09;;;;;;;0.50;0.50;;;6.20;99.90;;;;;;4441321;32;20085;-65
2024/03/24 11:09:35;;;;;;;43.20;0.95;;;6.30;99.90;;;;;;4440398;32;20081;-66
2024/03/24 11:12:01;;;;;;;0.30;0.30;;;6.50;99.90;;;;;;4441630;32;20547;-65
2024/03/24 11:14:26;;;;;;;0.30;0.30;;;6.60;99.90;;;;;;4439338;32;20085;-65
2024/03/24 11:16:54;;;;;;;0.35;0.35;;;6.40;99.90;;;;;;4438659;32;20167;-65
2024/03/24 11:19:26;;;;;;;0.50;0.50;;;6.40;99.90;;;;;;4428383;32;21210;-65
2024/03/24 11:21:52;;;;;;;0.40;0.40;;;6.40;99.90;;;;;;4440830;32;20642;-67
2024/03/24 11:24:27;;;;;;;1.83;0.35;;;6.40;99.90;;;;;;4425111;32;20061;-66
2024/03/24 11:26:54;;;;;;;0.65;0.65;;;6.40;99.90;;;;;;4439752;32;20101;-65
2024/03/24 11:29:49;;;;;;;0.47;0.47;;;6.50;99.90;;;;;;4438930;32;20069;-65
2024/03/24 11:32:18;;;;;;;0.43;0.43;;;6.50;99.90;;;;;;4431332;32;20423;-65
2024/03/24 11:34:50;;;;;;;0.22;0.22;;;6.50;99.90;;;;;;4439641;32;20555;-66
2024/03/24 11:37:16;;;;;;;0.40;0.40;;;6.40;99.90;;;;;;4441162;32;20065;-65
2024/03/24 11:39:42;;;;;;;0.52;0.45;;;6.40;99.90;;;;;;4438789;32;20473;-63
2024/03/24 11:42:09;;;;;;;0.30;0.30;;;6.40;99.90;;;;;;4440831;32;20474;-63
2024/03/24 11:44:36;;;;;;;0.30;0.30;;;6.40;99.90;;;;;;4439703;32;20070;-63
2024/03/24 11:47:04;;;;;;;0.30;0.30;;;6.40;99.90;;;;;;4441527;32;20160;-63
2024/03/24 11:49:39;;;;;;;0.40;0.40;;;6.40;99.90;;;;;;4426746;32;20438;-64
2024/03/24 11:52:05;;;;;;;0.50;0.50;;;6.50;99.90;;;;;;4437885;32;20085;-64
2024/03/24 11:54:31;;;;;;;0.68;0.32;;;6.40;99.90;;;;;;4449381;32;103481;-64
2024/03/24 11:56:57;;;;;;;0.35;0.35;;;6.40;99.90;;;;;;4440674;32;21022;-63
2024/03/24 11:59:23;;;;;;;0.37;0.37;;;6.30;99.90;;;;;;4455987;32;20052;-63
2024/03/24 12:01:49;;;;;;;0.32;0.32;;;6.40;99.90;;;;;;4451241;32;20100;-63
2024/03/24 12:04:18;;;;;;;0.25;0.25;;;6.50;99.90;;;;;;4457471;32;20127;-63
2024/03/24 12:06:45;;;;;;;0.30;0.30;;;6.50;99.90;;;;;;4458470;32;20523;-63
2024/03/24 12:09:11;;;;;;;0.40;0.40;;;6.50;99.90;;;;;;4448070;32;20473;-63
2024/03/24 12:11:40;;;;;;;0.37;0.37;;;6.60;99.90;;;;;;4443695;32;20139;-63
2024/03/24 12:14:07;;;;;;;0.95;0.60;;;6.60;99.90;;;;;;4443561;32;20566;-65
2024/03/24 12:16:33;;;;;;;0.28;0.28;;;6.70;99.90;;;;;;4459179;32;20076;-63
2024/03/24 12:18:59;;;;;;;0.30;0.30;;;6.70;99.90;;;;;;4456331;32;20429;-64
2024/03/24 12:21:25;;;;;;;0.30;0.30;;;6.90;99.90;;;;;;4449581;32;20065;-63
2024/03/24 12:23:51;;;;;;;0.30;0.30;;;6.90;99.90;;;;;;4457689;32;20091;-63
2024/03/24 12:26:20;;;;;;;0.40;0.40;;;6.90;99.90;;;;;;4455698;32;20088;-63
2024/03/24 12:28:54;;;;;;;1.10;0.60;;;6.90;99.90;;;;;;4446802;32;20481;-64
2024/03/24 12:31:20;;;;;;;0.30;0.30;;;7.10;99.90;;;;;;4457120;32;20525;-63
2024/03/24 12:33:49;;;;;;;0.25;0.25;;;7.10;99.90;;;;;;4458294;32;20073;-63
2024/03/24 12:36:15;;;;;;;0.30;0.30;;;7.10;99.90;;;;;;4456459;32;20096;-63
2024/03/24 12:38:42;;;;;;;0.30;0.30;;;7.10;99.90;;;;;;4449971;32;20122;-63
2024/03/24 12:41:07;;;;;;;0.30;0.30;;;7.10;99.90;;;;;;4458021;32;20069;-63
2024/03/24 12:43:33;;;;;;;0.50;0.50;;;7.30;99.90;;;;;;4458325;32;20721;-63
2024/03/24 12:46:00;;;;;;;1.65;0.98;;;7.30;99.90;;;;;;4456225;32;20088;-63
2024/03/24 12:48:28;;;;;;;0.30;0.30;;;7.20;99.90;;;;;;4457038;32;20430;-63
2024/03/24 12:50:55;;;;;;;0.57;0.57;;;7.20;99.90;;;;;;4451041;32;20065;-65
2024/03/24 12:53:38;;;;;;;0.30;0.30;;;7.20;99.90;;;;;;4455213;32;20077;-65